Windsor Airport
CYQG : now visible

Airfield :











YOU CAN JOIN US ON...

 
LOGIN :

Register | Disclaimer

   EN    FR    IT 

 









Legend :    VFR   Marginal VFR   IFR   Intensive IFR   Very Intensive IFR
Visi :
Ceiling :
>= 8 km
>= 3000ft
5 to 8 km
1000 to 3000 ft
1500m to 5 km
500 to 1000 ft
800 to 1500m
200 to 500 ft
< 800m
< 200 ft
Symbols :   Thunderstorms  Fog  Heavy snow  Heavy precipitations  Wind > 20 kt






- Airport Elevation : 622 ft
- IATA code : YQG


CYQG - Windsor

CURRENT METAR :
  • 230200Z AUTO 28007KT 9SM CLR 05/M09 A3005 RMK SLP182

EXPIRED METARs :
  • 230100Z AUTO 29007KT 9SM CLR 07/M08 A3003 RMK SLP175
  • 230000Z AUTO 25006KT 9SM SCT076 07/M05 A3001 RMK SLP171

TAF TAF CYQG
Valid from the 23 at 00:00 until the 24 at 00:00 UTC


222338Z 2300/2324 26008KT P6SM SCT070
FM231800 26015KT P6SM BKN080 BKN140
BECMG 2319/2321 23015KT RMK FCST BASED ON AUTO OBS. NXT FCST BY 230600Z
CZYZ FIR / North America



MET'MAP, your aeronautical weather chart ! - Copyright ORBIFLY December 2007 - Disclaimer

ORBIFLY MET'MAP TEAM :

Programming & Development : Alexandra Zaïnal
Concept & original design : Baudouin d'Aumeries
Assistance for programming : Marc-Olivier Méhu
Technical & hardware support : Manuel Goepfert

Contact : metmap@orbifly.com




SOURCES & CREDITS :

   NOAA       Earth
Advisory